Dryden Regional Airport
CYHD : now visible

Airfield :











YOU CAN JOIN US ON...

 
LOGIN :

Register | Disclaimer

   EN    FR    IT 

 









Legend :    VFR   Marginal VFR   IFR   Intensive IFR   Very Intensive IFR
Visi :
Ceiling :
>= 8 km
>= 3000ft
5 to 8 km
1000 to 3000 ft
1500m to 5 km
500 to 1000 ft
800 to 1500m
200 to 500 ft
< 800m
< 200 ft
Symbols :   Thunderstorms  Fog  Heavy snow  Heavy precipitations  Wind > 20 kt






- Airport Elevation : 1354 ft
- IATA code : YHD


CYHD - Dryden Regional

CURRENT METAR :
  • 130500Z AUTO 18006KT 9SM CLR 21/14 A3004 RMK SLP175 DENSITY ALT 2200FT

EXPIRED METARs :
  • 130400Z AUTO 19006KT 9SM CLR 22/13 A3004 RMK SLP175 DENSITY ALT 2300FT
  • 130300Z AUTO 18005KT 9SM CLR 23/13 A3003 RMK SLP173 DENSITY ALT 2500FT

TAF TAF CYHD
Valid from the 13 at 02:00 until the 13 at 14:00 UTC


130138Z 1302/1314 13006KT P6SM SCT230
BECMG 1312/1314 15012KT RMK FCST BASED ON AUTO OBS. NXT FCST BY 130800Z
CZWG FIR / North America



MET'MAP, your aeronautical weather chart ! - Copyright ORBIFLY December 2007 - Disclaimer

ORBIFLY MET'MAP TEAM :

Programming & Development : Alexandra Zaïnal
Concept & original design : Baudouin d'Aumeries
Assistance for programming : Marc-Olivier Méhu
Technical & hardware support : Manuel Goepfert

Contact : metmap@orbifly.com




SOURCES & CREDITS :

   NOAA       Earth
Advisory